sensor_id;sensor_type;location;lat;lon;timestamp;P1;durP1;ratioP1;P2;durP2;ratioP2
16039;SDS011;8124;48.634;8.120;2022-09-02T00:05:00;43.47;;;38.97;;
16039;SDS011;8124;48.634;8.120;2022-09-02T00:10:03;44.00;;;39.42;;
16039;SDS011;8124;48.634;8.120;2022-09-02T00:15:07;43.72;;;39.22;;
16039;SDS011;8124;48.634;8.120;2022-09-02T00:20:12;43.55;;;39.05;;
16039;SDS011;8124;48.634;8.120;2022-09-02T00:25:15;46.37;;;41.67;;
16039;SDS011;8124;48.634;8.120;2022-09-02T00:30:18;43.53;;;39.03;;
16039;SDS011;8124;48.634;8.120;2022-09-02T00:35:23;43.65;;;39.15;;
16039;SDS011;8124;48.634;8.120;2022-09-02T00:40:29;43.38;;;38.90;;
16039;SDS011;8124;48.634;8.120;2022-09-02T00:45:33;44.05;;;39.50;;
16039;SDS011;8124;48.634;8.120;2022-09-02T00:50:39;44.65;;;39.63;;
16039;SDS011;8124;48.634;8.120;2022-09-02T00:55:43;43.50;;;38.85;;
16039;SDS011;8124;48.634;8.120;2022-09-02T01:00:50;43.90;;;39.38;;
16039;SDS011;8124;48.634;8.120;2022-09-02T01:05:58;43.92;;;39.35;;
16039;SDS011;8124;48.634;8.120;2022-09-02T01:11:02;43.58;;;39.08;;
16039;SDS011;8124;48.634;8.120;2022-09-02T01:16:08;43.97;;;39.28;;
16039;SDS011;8124;48.634;8.120;2022-09-02T01:21:16;44.05;;;39.47;;
16039;SDS011;8124;48.634;8.120;2022-09-02T01:26:21;44.13;;;38.67;;
16039;SDS011;8124;48.634;8.120;2022-09-02T01:31:25;43.53;;;38.83;;
16039;SDS011;8124;48.634;8.120;2022-09-02T01:36:45;42.72;;;38.22;;
16039;SDS011;8124;48.634;8.120;2022-09-02T01:41:48;43.92;;;39.40;;
16039;SDS011;8124;48.634;8.120;2022-09-02T01:46:52;43.50;;;39.00;;
16039;SDS011;8124;48.634;8.120;2022-09-02T01:51:57;43.60;;;39.08;;
16039;SDS011;8124;48.634;8.120;2022-09-02T01:57:00;43.38;;;38.90;;
16039;SDS011;8124;48.634;8.120;2022-09-02T02:02:04;43.78;;;39.22;;
16039;SDS011;8124;48.634;8.120;2022-09-02T02:07:08;43.03;;;38.63;;
16039;SDS011;8124;48.634;8.120;2022-09-02T02:12:11;42.33;;;37.95;;
16039;SDS011;8124;48.634;8.120;2022-09-02T02:17:15;42.53;;;38.08;;
16039;SDS011;8124;48.634;8.120;2022-09-02T02:22:19;42.95;;;38.45;;
16039;SDS011;8124;48.634;8.120;2022-09-02T02:27:23;42.45;;;38.05;;
16039;SDS011;8124;48.634;8.120;2022-09-02T02:32:26;44.35;;;39.85;;
16039;SDS011;8124;48.634;8.120;2022-09-02T02:37:31;43.10;;;38.63;;
16039;SDS011;8124;48.634;8.120;2022-09-02T02:42:34;43.38;;;38.88;;
16039;SDS011;8124;48.634;8.120;2022-09-02T02:47:37;43.30;;;38.80;;
16039;SDS011;8124;48.634;8.120;2022-09-02T02:52:42;44.38;;;39.80;;
16039;SDS011;8124;48.634;8.120;2022-09-02T02:57:46;43.67;;;38.97;;
16039;SDS011;8124;48.634;8.120;2022-09-02T03:02:53;42.85;;;38.45;;
16039;SDS011;8124;48.634;8.120;2022-09-02T03:07:59;42.83;;;38.42;;
16039;SDS011;8124;48.634;8.120;2022-09-02T03:13:04;43.85;;;39.25;;
16039;SDS011;8124;48.634;8.120;2022-09-02T03:18:07;42.97;;;38.55;;
16039;SDS011;8124;48.634;8.120;2022-09-02T03:23:12;42.67;;;38.25;;
16039;SDS011;8124;48.634;8.120;2022-09-02T03:28:19;43.28;;;38.78;;
16039;SDS011;8124;48.634;8.120;2022-09-02T03:33:23;43.15;;;38.55;;
16039;SDS011;8124;48.634;8.120;2022-09-02T03:38:27;43.53;;;38.97;;
16039;SDS011;8124;48.634;8.120;2022-09-02T03:43:30;45.10;;;40.50;;
16039;SDS011;8124;48.634;8.120;2022-09-02T03:48:33;47.13;;;42.28;;
16039;SDS011;8124;48.634;8.120;2022-09-02T03:53:37;43.22;;;38.72;;
16039;SDS011;8124;48.634;8.120;2022-09-02T03:58:42;42.67;;;38.25;;
16039;SDS011;8124;48.634;8.120;2022-09-02T04:03:47;41.55;;;37.15;;
16039;SDS011;8124;48.634;8.120;2022-09-02T04:08:52;42.88;;;38.38;;
16039;SDS011;8124;48.634;8.120;2022-09-02T04:13:57;42.35;;;37.95;;
16039;SDS011;8124;48.634;8.120;2022-09-02T04:19:04;42.92;;;38.53;;
16039;SDS011;8124;48.634;8.120;2022-09-02T04:24:09;43.78;;;39.25;;
16039;SDS011;8124;48.634;8.120;2022-09-02T04:29:18;42.55;;;37.72;;
16039;SDS011;8124;48.634;8.120;2022-09-02T04:34:24;43.25;;;38.75;;
16039;SDS011;8124;48.634;8.120;2022-09-02T04:39:29;42.45;;;37.95;;
16039;SDS011;8124;48.634;8.120;2022-09-02T04:44:32;43.55;;;39.03;;
16039;SDS011;8124;48.634;8.120;2022-09-02T04:49:36;41.88;;;37.47;;
16039;SDS011;8124;48.634;8.120;2022-09-02T04:54:41;42.58;;;38.15;;
16039;SDS011;8124;48.634;8.120;2022-09-02T04:59:44;43.78;;;39.10;;
16039;SDS011;8124;48.634;8.120;2022-09-02T05:04:48;43.75;;;39.25;;
16039;SDS011;8124;48.634;8.120;2022-09-02T05:10:02;44.13;;;39.53;;
16039;SDS011;8124;48.634;8.120;2022-09-02T05:15:10;42.95;;;38.47;;
16039;SDS011;8124;48.634;8.120;2022-09-02T05:20:14;42.97;;;38.47;;
16039;SDS011;8124;48.634;8.120;2022-09-02T05:25:20;41.80;;;37.50;;
16039;SDS011;8124;48.634;8.120;2022-09-02T05:30:23;44.53;;;40.00;;
16039;SDS011;8124;48.634;8.120;2022-09-02T05:35:28;42.70;;;38.20;;
16039;SDS011;8124;48.634;8.120;2022-09-02T05:40:36;43.65;;;39.05;;
16039;SDS011;8124;48.634;8.120;2022-09-02T05:45:42;44.13;;;39.13;;
16039;SDS011;8124;48.634;8.120;2022-09-02T05:50:46;43.83;;;39.22;;
16039;SDS011;8124;48.634;8.120;2022-09-02T05:56:03;44.47;;;39.38;;
16039;SDS011;8124;48.634;8.120;2022-09-02T06:01:08;42.97;;;38.47;;
16039;SDS011;8124;48.634;8.120;2022-09-02T06:06:12;44.13;;;39.45;;
16039;SDS011;8124;48.634;8.120;2022-09-02T06:11:17;44.55;;;39.90;;
16039;SDS011;8124;48.634;8.120;2022-09-02T06:16:22;46.53;;;41.70;;
16039;SDS011;8124;48.634;8.120;2022-09-02T06:21:27;45.42;;;40.72;;
16039;SDS011;8124;48.634;8.120;2022-09-02T06:26:33;44.60;;;39.80;;
16039;SDS011;8124;48.634;8.120;2022-09-02T06:31:37;45.33;;;40.53;;
16039;SDS011;8124;48.634;8.120;2022-09-02T06:36:45;44.78;;;39.97;;
16039;SDS011;8124;48.634;8.120;2022-09-02T06:41:53;44.65;;;39.90;;
16039;SDS011;8124;48.634;8.120;2022-09-02T06:47:02;44.20;;;39.58;;
16039;SDS011;8124;48.634;8.120;2022-09-02T06:52:05;45.55;;;40.85;;
16039;SDS011;8124;48.634;8.120;2022-09-02T06:57:19;47.65;;;42.58;;
16039;SDS011;8124;48.634;8.120;2022-09-02T07:02:25;45.42;;;40.03;;
16039;SDS011;8124;48.634;8.120;2022-09-02T07:07:30;45.30;;;40.53;;
16039;SDS011;8124;48.634;8.120;2022-09-02T07:12:41;45.00;;;40.28;;
16039;SDS011;8124;48.634;8.120;2022-09-02T07:17:49;44.70;;;39.90;;
16039;SDS011;8124;48.634;8.120;2022-09-02T07:23:00;44.38;;;39.58;;
16039;SDS011;8124;48.634;8.120;2022-09-02T07:28:08;43.83;;;39.20;;
16039;SDS011;8124;48.634;8.120;2022-09-02T07:33:14;43.75;;;39.15;;
16039;SDS011;8124;48.634;8.120;2022-09-02T07:38:19;44.83;;;39.92;;
16039;SDS011;8124;48.634;8.120;2022-09-02T07:43:24;44.20;;;39.50;;
16039;SDS011;8124;48.634;8.120;2022-09-02T07:48:30;45.20;;;40.40;;
16039;SDS011;8124;48.634;8.120;2022-09-02T07:53:35;44.50;;;39.85;;
16039;SDS011;8124;48.634;8.120;2022-09-02T07:58:42;43.70;;;38.97;;
16039;SDS011;8124;48.634;8.120;2022-09-02T08:03:46;44.30;;;39.40;;
16039;SDS011;8124;48.634;8.120;2022-09-02T08:08:50;43.33;;;38.70;;
16039;SDS011;8124;48.634;8.120;2022-09-02T08:13:54;42.92;;;38.38;;
16039;SDS011;8124;48.634;8.120;2022-09-02T08:18:57;42.72;;;38.22;;
16039;SDS011;8124;48.634;8.120;2022-09-02T08:24:00;42.83;;;38.25;;
16039;SDS011;8124;48.634;8.120;2022-09-02T08:29:07;42.40;;;37.95;;
16039;SDS011;8124;48.634;8.120;2022-09-02T08:34:12;43.55;;;38.95;;
16039;SDS011;8124;48.634;8.120;2022-09-02T08:39:15;43.25;;;38.65;;
16039;SDS011;8124;48.634;8.120;2022-09-02T08:44:20;42.35;;;37.83;;
16039;SDS011;8124;48.634;8.120;2022-09-02T08:49:26;42.72;;;38.22;;
16039;SDS011;8124;48.634;8.120;2022-09-02T08:54:35;43.00;;;38.50;;
16039;SDS011;8124;48.634;8.120;2022-09-02T08:59:45;42.58;;;38.03;;
16039;SDS011;8124;48.634;8.120;2022-09-02T09:04:56;42.22;;;37.72;;
16039;SDS011;8124;48.634;8.120;2022-09-02T09:10:23;42.38;;;37.97;;
16039;SDS011;8124;48.634;8.120;2022-09-02T09:15:34;42.45;;;37.85;;
16039;SDS011;8124;48.634;8.120;2022-09-02T09:20:41;42.35;;;37.67;;
16039;SDS011;8124;48.634;8.120;2022-09-02T09:25:46;41.92;;;37.42;;
16039;SDS011;8124;48.634;8.120;2022-09-02T09:30:51;44.10;;;38.38;;
16039;SDS011;8124;48.634;8.120;2022-09-02T09:35:54;41.92;;;37.50;;
16039;SDS011;8124;48.634;8.120;2022-09-02T09:41:13;42.13;;;37.75;;
16039;SDS011;8124;48.634;8.120;2022-09-02T09:46:25;42.75;;;38.35;;
16039;SDS011;8124;48.634;8.120;2022-09-02T09:51:32;42.00;;;37.63;;
16039;SDS011;8124;48.634;8.120;2022-09-02T09:56:50;42.35;;;37.83;;
16039;SDS011;8124;48.634;8.120;2022-09-02T10:01:56;42.90;;;38.45;;
16039;SDS011;8124;48.634;8.120;2022-09-02T10:06:59;43.72;;;39.03;;
16039;SDS011;8124;48.634;8.120;2022-09-02T10:12:03;42.20;;;37.85;;
16039;SDS011;8124;48.634;8.120;2022-09-02T10:22:46;42.75;;;38.33;;
16039;SDS011;8124;48.634;8.120;2022-09-02T10:28:03;42.83;;;38.22;;
16039;SDS011;8124;48.634;8.120;2022-09-02T10:33:20;43.30;;;38.83;;
16039;SDS011;8124;48.634;8.120;2022-09-02T10:38:32;42.53;;;38.13;;
16039;SDS011;8124;48.634;8.120;2022-09-02T10:43:45;43.00;;;38.60;;
16039;SDS011;8124;48.634;8.120;2022-09-02T10:49:01;43.45;;;39.03;;
16039;SDS011;8124;48.634;8.120;2022-09-02T10:54:12;42.65;;;38.25;;
16039;SDS011;8124;48.634;8.120;2022-09-02T10:59:29;43.22;;;38.72;;
16039;SDS011;8124;48.634;8.120;2022-09-02T11:04:39;42.35;;;37.95;;
16039;SDS011;8124;48.634;8.120;2022-09-02T11:09:47;43.33;;;38.63;;
16039;SDS011;8124;48.634;8.120;2022-09-02T11:15:00;42.95;;;38.55;;
16039;SDS011;8124;48.634;8.120;2022-09-02T11:20:25;42.75;;;38.35;;
16039;SDS011;8124;48.634;8.120;2022-09-02T11:25:33;43.20;;;38.80;;
16039;SDS011;8124;48.634;8.120;2022-09-02T11:30:42;43.80;;;39.20;;
16039;SDS011;8124;48.634;8.120;2022-09-02T11:35:50;43.35;;;38.85;;
16039;SDS011;8124;48.634;8.120;2022-09-02T11:40:59;42.72;;;38.33;;
16039;SDS011;8124;48.634;8.120;2022-09-02T11:46:41;43.40;;;38.90;;
16039;SDS011;8124;48.634;8.120;2022-09-02T11:52:05;43.00;;;38.53;;
16039;SDS011;8124;48.634;8.120;2022-09-02T11:57:20;42.97;;;38.58;;
16039;SDS011;8124;48.634;8.120;2022-09-02T12:02:30;43.95;;;39.38;;
16039;SDS011;8124;48.634;8.120;2022-09-02T12:07:47;43.08;;;38.65;;
16039;SDS011;8124;48.634;8.120;2022-09-02T12:13:00;43.47;;;38.97;;
16039;SDS011;8124;48.634;8.120;2022-09-02T12:18:24;42.92;;;38.53;;
16039;SDS011;8124;48.634;8.120;2022-09-02T12:29:30;43.08;;;38.63;;
16039;SDS011;8124;48.634;8.120;2022-09-02T12:34:54;43.67;;;39.17;;
16039;SDS011;8124;48.634;8.120;2022-09-02T12:40:00;43.80;;;39.33;;
16039;SDS011;8124;48.634;8.120;2022-09-02T12:45:24;43.55;;;39.05;;
16039;SDS011;8124;48.634;8.120;2022-09-02T12:50:50;43.47;;;39.03;;
16039;SDS011;8124;48.634;8.120;2022-09-02T12:55:57;43.72;;;39.22;;
16039;SDS011;8124;48.634;8.120;2022-09-02T13:01:11;43.88;;;39.28;;
16039;SDS011;8124;48.634;8.120;2022-09-02T13:06:20;45.05;;;40.55;;
16039;SDS011;8124;48.634;8.120;2022-09-02T13:11:42;43.05;;;38.65;;
16039;SDS011;8124;48.634;8.120;2022-09-02T13:17:08;44.25;;;39.60;;
16039;SDS011;8124;48.634;8.120;2022-09-02T13:28:38;44.03;;;39.42;;
16039;SDS011;8124;48.634;8.120;2022-09-02T13:34:03;43.63;;;39.03;;
16039;SDS011;8124;48.634;8.120;2022-09-02T13:39:09;44.13;;;39.63;;
16039;SDS011;8124;48.634;8.120;2022-09-02T13:44:19;44.65;;;40.03;;
16039;SDS011;8124;48.634;8.120;2022-09-02T13:49:26;44.38;;;39.88;;
16039;SDS011;8124;48.634;8.120;2022-09-02T13:54:38;44.00;;;39.45;;
16039;SDS011;8124;48.634;8.120;2022-09-02T13:59:46;44.38;;;39.88;;
16039;SDS011;8124;48.634;8.120;2022-09-02T14:04:54;43.92;;;39.38;;
16039;SDS011;8124;48.634;8.120;2022-09-02T14:10:00;44.63;;;40.05;;
16039;SDS011;8124;48.634;8.120;2022-09-02T14:15:09;44.47;;;39.97;;
16039;SDS011;8124;48.634;8.120;2022-09-02T14:20:17;44.33;;;39.83;;
16039;SDS011;8124;48.634;8.120;2022-09-02T14:25:22;44.63;;;40.03;;
16039;SDS011;8124;48.634;8.120;2022-09-02T14:30:29;44.83;;;40.33;;
16039;SDS011;8124;48.634;8.120;2022-09-02T14:35:36;44.33;;;39.85;;
16039;SDS011;8124;48.634;8.120;2022-09-02T14:40:39;45.05;;;40.42;;
16039;SDS011;8124;48.634;8.120;2022-09-02T14:45:45;44.55;;;40.05;;
16039;SDS011;8124;48.634;8.120;2022-09-02T14:50:57;44.88;;;40.28;;
16039;SDS011;8124;48.634;8.120;2022-09-02T14:56:03;44.58;;;40.00;;
16039;SDS011;8124;48.634;8.120;2022-09-02T15:01:07;44.30;;;39.72;;
16039;SDS011;8124;48.634;8.120;2022-09-02T15:06:11;44.92;;;40.15;;
16039;SDS011;8124;48.634;8.120;2022-09-02T15:11:15;44.25;;;39.72;;
16039;SDS011;8124;48.634;8.120;2022-09-02T15:16:21;58.40;;;41.55;;
16039;SDS011;8124;48.634;8.120;2022-09-02T15:21:26;44.53;;;40.03;;
16039;SDS011;8124;48.634;8.120;2022-09-02T15:26:29;44.78;;;40.08;;
16039;SDS011;8124;48.634;8.120;2022-09-02T15:31:32;43.97;;;39.53;;
16039;SDS011;8124;48.634;8.120;2022-09-02T15:36:38;44.63;;;40.03;;
16039;SDS011;8124;48.634;8.120;2022-09-02T15:41:41;44.47;;;39.78;;
16039;SDS011;8124;48.634;8.120;2022-09-02T15:46:47;44.53;;;40.03;;
16039;SDS011;8124;48.634;8.120;2022-09-02T15:51:52;45.00;;;40.33;;
16039;SDS011;8124;48.634;8.120;2022-09-02T15:56:56;44.55;;;40.05;;
16039;SDS011;8124;48.634;8.120;2022-09-02T16:01:59;45.15;;;40.15;;
16039;SDS011;8124;48.634;8.120;2022-09-02T16:07:04;45.65;;;40.80;;
16039;SDS011;8124;48.634;8.120;2022-09-02T16:12:07;45.13;;;40.58;;
16039;SDS011;8124;48.634;8.120;2022-09-02T16:17:10;44.50;;;40.00;;
16039;SDS011;8124;48.634;8.120;2022-09-02T16:22:15;45.17;;;40.40;;
16039;SDS011;8124;48.634;8.120;2022-09-02T16:27:18;45.10;;;40.40;;
16039;SDS011;8124;48.634;8.120;2022-09-02T16:32:40;45.67;;;41.08;;
16039;SDS011;8124;48.634;8.120;2022-09-02T16:37:45;44.75;;;40.15;;
16039;SDS011;8124;48.634;8.120;2022-09-02T16:42:48;46.13;;;41.53;;
16039;SDS011;8124;48.634;8.120;2022-09-02T16:47:51;44.97;;;40.38;;
16039;SDS011;8124;48.634;8.120;2022-09-02T16:52:56;44.70;;;40.17;;
16039;SDS011;8124;48.634;8.120;2022-09-02T16:57:59;44.17;;;39.67;;
16039;SDS011;8124;48.634;8.120;2022-09-02T17:03:03;44.90;;;40.35;;
16039;SDS011;8124;48.634;8.120;2022-09-02T17:08:07;44.72;;;40.22;;
16039;SDS011;8124;48.634;8.120;2022-09-02T17:13:10;44.75;;;40.15;;
16039;SDS011;8124;48.634;8.120;2022-09-02T17:18:13;44.63;;;40.10;;
16039;SDS011;8124;48.634;8.120;2022-09-02T17:23:17;45.35;;;40.65;;
16039;SDS011;8124;48.634;8.120;2022-09-02T17:28:20;44.38;;;39.88;;
16039;SDS011;8124;48.634;8.120;2022-09-02T17:33:27;44.78;;;40.28;;
16039;SDS011;8124;48.634;8.120;2022-09-02T17:38:31;45.03;;;40.35;;
16039;SDS011;8124;48.634;8.120;2022-09-02T17:43:35;44.63;;;40.03;;
16039;SDS011;8124;48.634;8.120;2022-09-02T17:48:40;44.63;;;39.92;;
16039;SDS011;8124;48.634;8.120;2022-09-02T17:54:05;44.95;;;40.33;;
16039;SDS011;8124;48.634;8.120;2022-09-02T17:59:12;44.47;;;39.97;;
16039;SDS011;8124;48.634;8.120;2022-09-02T18:04:23;44.70;;;40.13;;
16039;SDS011;8124;48.634;8.120;2022-09-02T18:09:36;44.35;;;39.55;;
16039;SDS011;8124;48.634;8.120;2022-09-02T18:14:41;44.42;;;39.80;;
16039;SDS011;8124;48.634;8.120;2022-09-02T18:19:53;44.45;;;39.95;;
16039;SDS011;8124;48.634;8.120;2022-09-02T18:25:04;47.05;;;42.05;;
16039;SDS011;8124;48.634;8.120;2022-09-02T18:30:21;44.28;;;39.75;;
16039;SDS011;8124;48.634;8.120;2022-09-02T18:35:30;44.47;;;39.90;;
16039;SDS011;8124;48.634;8.120;2022-09-02T18:40:45;43.92;;;39.22;;
16039;SDS011;8124;48.634;8.120;2022-09-02T18:45:54;44.65;;;39.58;;
16039;SDS011;8124;48.634;8.120;2022-09-02T18:51:01;43.72;;;39.13;;
16039;SDS011;8124;48.634;8.120;2022-09-02T18:56:11;43.88;;;39.08;;
16039;SDS011;8124;48.634;8.120;2022-09-02T19:01:15;43.70;;;39.10;;
16039;SDS011;8124;48.634;8.120;2022-09-02T19:06:24;44.00;;;39.40;;
16039;SDS011;8124;48.634;8.120;2022-09-02T19:11:31;43.42;;;38.95;;
16039;SDS011;8124;48.634;8.120;2022-09-02T19:16:36;43.38;;;38.78;;
16039;SDS011;8124;48.634;8.120;2022-09-02T19:21:40;43.22;;;38.75;;
16039;SDS011;8124;48.634;8.120;2022-09-02T19:26:49;43.55;;;39.13;;
16039;SDS011;8124;48.634;8.120;2022-09-02T19:31:54;43.83;;;39.33;;
16039;SDS011;8124;48.634;8.120;2022-09-02T19:36:57;43.65;;;39.13;;
16039;SDS011;8124;48.634;8.120;2022-09-02T19:42:02;44.15;;;39.45;;
16039;SDS011;8124;48.634;8.120;2022-09-02T19:47:06;44.20;;;39.40;;
16039;SDS011;8124;48.634;8.120;2022-09-02T19:52:31;43.85;;;39.35;;
16039;SDS011;8124;48.634;8.120;2022-09-02T19:57:40;44.92;;;40.20;;
16039;SDS011;8124;48.634;8.120;2022-09-02T20:02:43;44.33;;;39.83;;
16039;SDS011;8124;48.634;8.120;2022-09-02T20:07:46;43.35;;;38.83;;
16039;SDS011;8124;48.634;8.120;2022-09-02T20:12:50;44.13;;;39.53;;
16039;SDS011;8124;48.634;8.120;2022-09-02T20:17:57;43.97;;;39.17;;
16039;SDS011;8124;48.634;8.120;2022-09-02T20:23:09;43.53;;;39.05;;
16039;SDS011;8124;48.634;8.120;2022-09-02T20:28:20;43.95;;;39.47;;
16039;SDS011;8124;48.634;8.120;2022-09-02T20:33:27;43.72;;;39.22;;
16039;SDS011;8124;48.634;8.120;2022-09-02T20:38:42;44.33;;;39.55;;
16039;SDS011;8124;48.634;8.120;2022-09-02T20:44:19;43.33;;;38.83;;
16039;SDS011;8124;48.634;8.120;2022-09-02T20:49:45;43.67;;;39.17;;
16039;SDS011;8124;48.634;8.120;2022-09-02T20:54:59;43.33;;;38.92;;
16039;SDS011;8124;48.634;8.120;2022-09-02T21:00:10;43.08;;;38.67;;
16039;SDS011;8124;48.634;8.120;2022-09-02T21:05:17;43.13;;;38.72;;
16039;SDS011;8124;48.634;8.120;2022-09-02T21:10:25;43.42;;;38.83;;
16039;SDS011;8124;48.634;8.120;2022-09-02T21:15:37;43.47;;;39.00;;
16039;SDS011;8124;48.634;8.120;2022-09-02T21:20:46;43.33;;;38.72;;
16039;SDS011;8124;48.634;8.120;2022-09-02T21:25:53;43.65;;;39.13;;
16039;SDS011;8124;48.634;8.120;2022-09-02T21:31:00;43.85;;;39.25;;
16039;SDS011;8124;48.634;8.120;2022-09-02T21:36:09;45.30;;;40.72;;
16039;SDS011;8124;48.634;8.120;2022-09-02T21:41:23;43.50;;;39.00;;
16039;SDS011;8124;48.634;8.120;2022-09-02T21:46:37;43.53;;;39.08;;
16039;SDS011;8124;48.634;8.120;2022-09-02T21:51:47;43.90;;;39.40;;
16039;SDS011;8124;48.634;8.120;2022-09-02T21:57:01;44.05;;;39.55;;
16039;SDS011;8124;48.634;8.120;2022-09-02T22:02:21;44.35;;;39.25;;
16039;SDS011;8124;48.634;8.120;2022-09-02T22:07:35;43.08;;;38.60;;
16039;SDS011;8124;48.634;8.120;2022-09-02T22:12:44;43.65;;;39.15;;
16039;SDS011;8124;48.634;8.120;2022-09-02T22:17:55;43.67;;;39.17;;
16039;SDS011;8124;48.634;8.120;2022-09-02T22:23:05;43.33;;;38.92;;
16039;SDS011;8124;48.634;8.120;2022-09-02T22:28:18;42.92;;;38.47;;
16039;SDS011;8124;48.634;8.120;2022-09-02T22:33:28;43.50;;;39.03;;
16039;SDS011;8124;48.634;8.120;2022-09-02T22:38:36;43.35;;;38.85;;
16039;SDS011;8124;48.634;8.120;2022-09-02T22:43:48;43.67;;;39.22;;
16039;SDS011;8124;48.634;8.120;2022-09-02T22:48:58;43.83;;;39.30;;
16039;SDS011;8124;48.634;8.120;2022-09-02T22:54:21;42.75;;;38.35;;
16039;SDS011;8124;48.634;8.120;2022-09-02T22:59:24;43.22;;;38.78;;
16039;SDS011;8124;48.634;8.120;2022-09-02T23:04:44;42.58;;;38.17;;
16039;SDS011;8124;48.634;8.120;2022-09-02T23:10:03;43.22;;;38.63;;
16039;SDS011;8124;48.634;8.120;2022-09-02T23:15:24;43.28;;;38.80;;
16039;SDS011;8124;48.634;8.120;2022-09-02T23:20:35;43.20;;;38.70;;
16039;SDS011;8124;48.634;8.120;2022-09-02T23:25:56;43.85;;;39.35;;
16039;SDS011;8124;48.634;8.120;2022-09-02T23:31:18;43.53;;;39.03;;
16039;SDS011;8124;48.634;8.120;2022-09-02T23:36:33;43.03;;;38.63;;
16039;SDS011;8124;48.634;8.120;2022-09-02T23:41:44;43.42;;;38.72;;
16039;SDS011;8124;48.634;8.120;2022-09-02T23:46:49;43.83;;;39.10;;
16039;SDS011;8124;48.634;8.120;2022-09-02T23:52:05;42.92;;;38.53;;
16039;SDS011;8124;48.634;8.120;2022-09-02T23:57:17;43.30;;;38.80;;
